createdAt,value
2022-08-20T00:01:04.351Z,21.96
2022-08-20T00:03:34.701Z,21.76
2022-08-20T00:06:09.766Z,21.62
2022-08-20T00:08:37.643Z,21.59
2022-08-20T00:11:06.739Z,21.59
2022-08-20T00:13:45.905Z,21.59
2022-08-20T00:16:13.728Z,21.66
2022-08-20T00:18:41.378Z,21.66
2022-08-20T00:21:18.069Z,21.63
2022-08-20T00:23:48.087Z,21.59
2022-08-20T00:26:15.535Z,21.66
2022-08-20T00:28:42.982Z,21.59
2022-08-20T00:31:11.301Z,21.67
2022-08-20T00:33:39.289Z,21.65
2022-08-20T00:36:09.440Z,21.70
2022-08-20T00:38:38.191Z,21.66
2022-08-20T00:41:06.086Z,21.65
2022-08-20T00:43:40.760Z,21.63
2022-08-20T00:46:22.825Z,21.45
2022-08-20T00:48:58.817Z,21.46
2022-08-20T00:51:35.091Z,21.47
2022-08-20T00:54:29.468Z,21.52
2022-08-20T00:56:59.435Z,21.62
2022-08-20T00:59:28.411Z,21.63
2022-08-20T01:01:56.682Z,21.62
2022-08-20T01:04:28.889Z,21.62
2022-08-20T01:06:56.244Z,21.56
2022-08-20T01:09:49.390Z,21.60
2022-08-20T01:12:11.313Z,21.56
2022-08-20T01:14:46.289Z,21.63
2022-08-20T01:17:18.261Z,21.60
2022-08-20T01:19:52.090Z,21.52
2022-08-20T01:22:43.119Z,21.50
2022-08-20T01:25:15.386Z,21.49
2022-08-20T01:27:43.024Z,21.65
2022-08-20T01:30:10.707Z,21.55
2022-08-20T01:32:38.316Z,21.56
2022-08-20T01:35:05.929Z,21.47
2022-08-20T01:37:33.285Z,21.46
2022-08-20T01:40:00.621Z,21.45
2022-08-20T01:42:33.728Z,21.56
2022-08-20T01:45:01.886Z,21.59
2022-08-20T01:47:38.521Z,21.63
2022-08-20T01:50:13.558Z,21.72
2022-08-20T01:52:46.772Z,21.62
2022-08-20T01:55:14.264Z,21.66
2022-08-20T01:57:41.543Z,21.55
2022-08-20T02:00:19.786Z,21.43
2022-08-20T02:02:49.552Z,21.38
2022-08-20T02:05:18.107Z,21.38
2022-08-20T02:07:45.519Z,21.45
2022-08-20T02:10:14.184Z,21.38
2022-08-20T02:12:41.858Z,21.50
2022-08-20T02:15:10.767Z,21.45
2022-08-20T02:17:39.308Z,21.55
2022-08-20T02:20:14.063Z,21.47
2022-08-20T02:22:44.232Z,21.42
2022-08-20T02:25:18.186Z,21.47
2022-08-20T02:27:46.460Z,21.55
2022-08-20T02:30:21.217Z,21.53
2022-08-20T02:32:59.570Z,21.42
2022-08-20T02:35:27.271Z,21.47
2022-08-20T02:37:55.253Z,21.55
2022-08-20T02:40:30.455Z,21.41
2022-08-20T02:42:59.646Z,21.38
2022-08-20T02:45:26.922Z,21.36
2022-08-20T02:47:55.839Z,21.28
2022-08-20T02:50:24.361Z,21.42
2022-08-20T02:52:52.362Z,21.28
2022-08-20T02:55:27.129Z,21.43
2022-08-20T02:57:58.631Z,21.42
2022-08-20T03:00:26.721Z,21.39
2022-08-20T03:02:54.173Z,21.35
2022-08-20T03:05:21.543Z,21.26
2022-08-20T03:07:53.720Z,21.32
2022-08-20T03:10:25.962Z,21.42
2022-08-20T03:12:53.397Z,21.39
2022-08-20T03:15:21.145Z,21.26
2022-08-20T03:17:48.708Z,21.31
2022-08-20T03:20:16.046Z,21.32
2022-08-20T03:22:43.611Z,21.28
2022-08-20T03:25:11.500Z,21.31
2022-08-20T03:27:38.896Z,21.18
2022-08-20T03:30:08.446Z,21.24
2022-08-20T03:32:36.045Z,21.26
2022-08-20T03:35:04.902Z,21.22
2022-08-20T03:37:32.960Z,21.28
2022-08-20T03:40:00.637Z,21.09
2022-08-20T03:42:28.058Z,21.18
2022-08-20T03:44:59.082Z,21.28
2022-08-20T03:47:27.276Z,21.25
2022-08-20T03:49:59.427Z,21.14
2022-08-20T03:52:28.700Z,21.09
2022-08-20T03:54:56.602Z,21.14
2022-08-20T03:57:24.243Z,21.16
2022-08-20T03:59:54.729Z,21.05
2022-08-20T04:02:25.955Z,21.08
2022-08-20T04:04:53.297Z,21.05
2022-08-20T04:07:26.027Z,20.98
2022-08-20T04:09:54.479Z,20.85
2022-08-20T04:12:22.620Z,20.97
2022-08-20T04:14:50.502Z,21.02
2022-08-20T04:17:19.174Z,21.07
2022-08-20T04:19:46.694Z,20.99
2022-08-20T04:22:14.103Z,20.92
2022-08-20T04:24:42.927Z,21.02
2022-08-20T04:27:10.458Z,20.91
2022-08-20T04:29:43.147Z,20.88
2022-08-20T04:32:10.571Z,20.81
2022-08-20T04:34:37.889Z,20.84
2022-08-20T04:37:05.583Z,20.91
2022-08-20T04:39:44.609Z,20.94
2022-08-20T04:42:11.947Z,20.98
2022-08-20T04:44:39.976Z,20.92
2022-08-20T04:47:08.073Z,20.92
2022-08-20T04:49:37.517Z,20.95
2022-08-20T04:52:04.864Z,20.97
2022-08-20T04:54:32.628Z,21.02
2022-08-20T04:57:01.834Z,21.12
2022-08-20T04:59:29.419Z,21.24
2022-08-20T05:01:56.960Z,21.19
2022-08-20T05:04:27.700Z,21.25
2022-08-20T05:06:55.676Z,21.26
2022-08-20T05:09:23.667Z,21.24
2022-08-20T05:11:51.481Z,21.15
2022-08-20T05:14:18.801Z,21.08
2022-08-20T05:16:46.188Z,21.26
2022-08-20T05:19:13.581Z,21.29
2022-08-20T05:21:41.161Z,21.26
2022-08-20T05:24:08.772Z,21.16
2022-08-20T05:26:36.255Z,21.11
2022-08-20T05:29:05.702Z,21.09
2022-08-20T05:31:33.889Z,21.29
2022-08-20T05:34:10.309Z,21.19
2022-08-20T05:36:40.247Z,21.22
2022-08-20T05:39:09.075Z,21.31
2022-08-20T05:41:38.019Z,21.16
2022-08-20T05:44:05.500Z,21.22
2022-08-20T05:46:32.930Z,21.28
2022-08-20T05:49:01.936Z,21.41
2022-08-20T05:51:29.952Z,21.52
2022-08-20T05:53:59.429Z,21.53
2022-08-20T05:56:30.730Z,21.59
2022-08-20T05:59:01.397Z,21.62
2022-08-20T06:01:28.949Z,21.69
2022-08-20T06:04:14.813Z,21.72
2022-08-20T06:06:46.172Z,21.60
2022-08-20T06:09:30.544Z,21.57
2022-08-20T06:12:01.533Z,21.43
2022-08-20T06:14:29.274Z,21.41
2022-08-20T06:17:02.919Z,21.39
2022-08-20T06:19:32.330Z,21.39
2022-08-20T06:22:00.675Z,21.46
2022-08-20T06:24:28.449Z,21.47
2022-08-20T06:26:57.497Z,21.41
2022-08-20T06:29:25.047Z,21.42
2022-08-20T06:31:52.565Z,21.38
2022-08-20T06:34:19.985Z,21.36
2022-08-20T06:36:47.788Z,21.35
2022-08-20T06:39:15.328Z,21.45
2022-08-20T06:41:43.269Z,21.62
2022-08-20T06:44:10.795Z,21.62
2022-08-20T06:46:38.343Z,21.52
2022-08-20T06:49:06.143Z,21.67
2022-08-20T06:51:34.304Z,21.73
2022-08-20T06:54:01.676Z,21.83
2022-08-20T06:56:29.053Z,21.86
2022-08-20T06:58:56.385Z,21.89
2022-08-20T07:01:24.388Z,22.03
2022-08-20T07:03:54.475Z,22.17
2022-08-20T07:06:26.904Z,22.27
2022-08-20T07:08:54.877Z,22.21
2022-08-20T07:11:27.280Z,22.30
2022-08-20T07:13:59.079Z,22.30
2022-08-20T07:16:27.341Z,22.34
2022-08-20T07:18:54.769Z,22.38
2022-08-20T07:21:22.188Z,22.41
2022-08-20T07:23:49.615Z,22.47
2022-08-20T07:26:17.756Z,22.25
2022-08-20T07:28:45.388Z,22.35
2022-08-20T07:31:31.619Z,22.42
2022-08-20T07:34:03.007Z,22.40
2022-08-20T07:36:30.790Z,22.51
2022-08-20T07:38:58.234Z,22.47
2022-08-20T07:41:25.586Z,22.49
2022-08-20T07:43:53.256Z,22.56
2022-08-20T07:46:21.724Z,22.44
2022-08-20T07:48:50.698Z,22.54
2022-08-20T07:51:19.335Z,22.58
2022-08-20T07:53:47.115Z,22.68
2022-08-20T07:56:17.156Z,22.73
2022-08-20T07:58:50.079Z,22.77
2022-08-20T08:01:26.129Z,22.75
2022-08-20T08:03:53.802Z,22.98
2022-08-20T08:06:29.632Z,22.92
2022-08-20T08:09:00.014Z,22.83
2022-08-20T08:11:27.448Z,23.12
2022-08-20T08:13:54.775Z,23.12
2022-08-20T08:16:23.210Z,23.31
2022-08-20T08:18:52.116Z,23.33
2022-08-20T08:21:23.846Z,23.31
2022-08-20T08:23:51.354Z,23.30
2022-08-20T08:26:19.302Z,23.37
2022-08-20T08:28:46.930Z,23.31
2022-08-20T08:31:14.731Z,23.43
2022-08-20T08:33:42.515Z,23.57
2022-08-20T08:36:14.625Z,23.55
2022-08-20T08:38:43.881Z,23.99
2022-08-20T08:41:18.711Z,24.25
2022-08-20T08:43:47.411Z,24.29
2022-08-20T08:46:18.198Z,24.30
2022-08-20T08:48:47.190Z,24.26
2022-08-20T08:51:19.334Z,24.26
2022-08-20T08:53:53.710Z,24.18
2022-08-20T08:56:23.567Z,24.28
2022-08-20T08:58:51.040Z,24.36
2022-08-20T09:01:53.996Z,24.40
2022-08-20T09:04:07.069Z,24.16
2022-08-20T09:06:34.510Z,24.12
2022-08-20T09:09:05.228Z,24.32
2022-08-20T09:11:46.046Z,24.30
2022-08-20T09:14:13.826Z,24.22
2022-08-20T09:16:53.343Z,24.33
2022-08-20T09:19:21.705Z,24.66
2022-08-20T09:21:49.395Z,24.95
2022-08-20T09:24:16.918Z,24.53
2022-08-20T09:26:44.288Z,24.50
2022-08-20T09:29:11.673Z,24.83
2022-08-20T09:31:39.908Z,24.71
2022-08-20T09:34:07.914Z,24.86
2022-08-20T09:36:35.528Z,24.95
2022-08-20T09:39:03.350Z,25.14
2022-08-20T09:41:33.721Z,25.49
2022-08-20T09:44:02.426Z,25.96
2022-08-20T09:46:29.812Z,25.49
2022-08-20T09:48:57.244Z,25.69
2022-08-20T09:51:24.534Z,25.42
2022-08-20T09:53:52.020Z,25.62
2022-08-20T09:56:19.320Z,25.90
2022-08-20T09:58:49.646Z,25.75
2022-08-20T10:01:18.100Z,26.23
2022-08-20T10:03:48.220Z,25.97
2022-08-20T10:06:17.911Z,25.96
2022-08-20T10:08:45.302Z,25.90
2022-08-20T10:11:12.736Z,25.65
2022-08-20T10:13:40.224Z,25.76
2022-08-20T10:16:07.559Z,25.45
2022-08-20T10:18:35.800Z,25.48
2022-08-20T10:21:03.650Z,25.48
2022-08-20T10:23:30.894Z,25.77
2022-08-20T10:25:58.221Z,26.20
2022-08-20T10:28:25.562Z,26.40
2022-08-20T10:30:52.887Z,26.75
2022-08-20T10:33:20.191Z,26.76
2022-08-20T10:35:47.611Z,26.86
2022-08-20T10:38:14.917Z,27.07
2022-08-20T10:40:42.337Z,27.04
2022-08-20T10:43:19.527Z,27.04
2022-08-20T10:45:46.859Z,26.95
2022-08-20T10:48:18.232Z,26.76
2022-08-20T10:50:49.187Z,26.96
2022-08-20T10:53:16.986Z,26.85
2022-08-20T10:55:44.520Z,26.78
2022-08-20T10:58:13.363Z,26.86
2022-08-20T11:00:41.169Z,26.56
2022-08-20T11:03:08.482Z,26.54
2022-08-20T11:05:35.827Z,26.72
2022-08-20T11:08:04.608Z,26.69
2022-08-20T11:10:34.171Z,26.79
2022-08-20T11:13:02.373Z,26.79
2022-08-20T11:15:29.696Z,27.02
2022-08-20T11:17:57.354Z,27.24
2022-08-20T11:20:28.175Z,27.30
2022-08-20T11:22:56.106Z,27.30
2022-08-20T11:25:23.621Z,27.43
2022-08-20T11:27:51.308Z,27.43
2022-08-20T11:30:27.042Z,27.49
2022-08-20T11:32:54.634Z,27.29
2022-08-20T11:35:43.371Z,27.55
2022-08-20T11:38:11.338Z,27.53
2022-08-20T11:40:38.869Z,27.68
2022-08-20T11:43:15.086Z,27.49
2022-08-20T11:45:44.945Z,27.60
2022-08-20T11:48:12.263Z,27.62
2022-08-20T11:50:39.617Z,27.71
2022-08-20T11:53:07.948Z,27.68
2022-08-20T11:55:35.928Z,27.53
2022-08-20T11:58:03.203Z,27.51
2022-08-20T12:00:32.190Z,27.23
2022-08-20T12:03:05.485Z,27.27
2022-08-20T12:05:36.375Z,26.99
2022-08-20T12:08:03.952Z,27.07
2022-08-20T12:10:31.493Z,27.12
2022-08-20T12:12:58.907Z,27.22
2022-08-20T12:15:27.709Z,27.12
2022-08-20T12:17:55.180Z,27.17
2022-08-20T12:20:22.700Z,27.04
2022-08-20T12:22:50.275Z,27.04
2022-08-20T12:25:17.895Z,27.22
2022-08-20T12:27:45.617Z,27.67
2022-08-20T12:30:15.107Z,27.84
2022-08-20T12:32:42.690Z,27.64
2022-08-20T12:35:10.247Z,27.07
2022-08-20T12:37:37.683Z,26.81
2022-08-20T12:40:07.678Z,26.95
2022-08-20T12:42:35.285Z,26.96
2022-08-20T12:45:02.885Z,27.12
2022-08-20T12:47:32.289Z,27.10
2022-08-20T12:50:02.144Z,26.95
2022-08-20T12:52:30.177Z,27.04
2022-08-20T12:54:57.778Z,27.06
2022-08-20T12:57:36.825Z,26.76
2022-08-20T13:00:07.689Z,26.69
2022-08-20T13:02:35.091Z,26.82
2022-08-20T13:05:04.822Z,26.83
2022-08-20T13:07:32.927Z,26.89
2022-08-20T13:10:00.424Z,26.85
2022-08-20T13:12:28.280Z,27.03
2022-08-20T13:14:55.667Z,26.96
2022-08-20T13:17:29.286Z,27.04
2022-08-20T13:20:08.942Z,27.04
2022-08-20T13:22:36.511Z,27.03
2022-08-20T13:25:05.118Z,26.69
2022-08-20T13:27:32.454Z,26.88
2022-08-20T13:29:59.877Z,26.82
2022-08-20T13:32:27.211Z,26.73
2022-08-20T13:34:54.681Z,26.75
2022-08-20T13:37:25.517Z,26.59
2022-08-20T13:39:54.291Z,26.54
2022-08-20T13:42:21.839Z,26.41
2022-08-20T13:44:49.674Z,26.41
2022-08-20T13:47:25.248Z,26.56
2022-08-20T13:49:57.895Z,26.44
2022-08-20T13:52:25.477Z,26.41
2022-08-20T13:54:53.549Z,26.44
2022-08-20T13:57:21.750Z,26.21
2022-08-20T13:59:50.303Z,25.97
2022-08-20T14:02:18.275Z,26.07
2022-08-20T14:04:46.090Z,25.90
2022-08-20T14:07:18.901Z,25.77
2022-08-20T14:09:48.413Z,25.70
2022-08-20T14:12:15.933Z,25.18
2022-08-20T14:14:43.644Z,24.39
2022-08-20T14:17:15.071Z,23.33
2022-08-20T14:19:42.590Z,22.38
2022-08-20T14:22:10.032Z,21.89
2022-08-20T14:24:37.425Z,21.92
2022-08-20T14:27:06.438Z,21.87
2022-08-20T14:29:35.939Z,21.76
2022-08-20T14:32:04.927Z,21.67
2022-08-20T14:34:32.340Z,21.60
2022-08-20T14:37:24.314Z,21.73
2022-08-20T14:39:53.495Z,21.86
2022-08-20T14:42:22.998Z,21.98
2022-08-20T14:44:50.988Z,22.05
2022-08-20T14:47:20.145Z,22.03
2022-08-20T14:49:48.517Z,22.03
2022-08-20T14:52:16.695Z,21.87
2022-08-20T14:54:44.292Z,21.75
2022-08-20T14:57:13.318Z,21.69
2022-08-20T14:59:41.325Z,21.56
2022-08-20T15:02:11.139Z,21.34
2022-08-20T15:04:38.703Z,21.21
2022-08-20T15:07:22.674Z,21.08
2022-08-20T15:09:50.025Z,21.08
2022-08-20T15:12:17.291Z,21.15
2022-08-20T15:14:44.753Z,21.16
2022-08-20T15:17:26.161Z,21.21
2022-08-20T15:19:53.989Z,21.25
2022-08-20T15:22:21.446Z,21.28
2022-08-20T15:24:48.964Z,21.34
2022-08-20T15:27:23.698Z,21.34
2022-08-20T15:29:51.544Z,21.35
2022-08-20T15:32:19.383Z,21.36
2022-08-20T15:34:47.221Z,21.32
2022-08-20T15:37:22.579Z,21.35
2022-08-20T15:39:50.317Z,21.49
2022-08-20T15:42:18.574Z,21.47
2022-08-20T15:44:46.305Z,21.47
2022-08-20T15:47:23.655Z,21.50
2022-08-20T15:49:54.096Z,21.49
2022-08-20T15:52:21.657Z,21.56
2022-08-20T15:54:49.038Z,21.62
2022-08-20T15:57:44.523Z,21.65
2022-08-20T16:00:20.180Z,21.67
2022-08-20T16:03:06.205Z,21.70
2022-08-20T16:05:41.238Z,21.70
2022-08-20T16:08:27.422Z,21.72
2022-08-20T16:11:08.391Z,21.72
2022-08-20T16:13:45.204Z,21.76
2022-08-20T16:16:32.804Z,21.84
2022-08-20T16:19:00.427Z,21.90
2022-08-20T16:21:33.856Z,21.84
2022-08-20T16:24:01.236Z,21.82
2022-08-20T16:27:01.498Z,21.75
2022-08-20T16:29:31.833Z,21.83
2022-08-20T16:32:10.884Z,21.79
2022-08-20T16:34:46.217Z,21.60
2022-08-20T16:37:35.402Z,21.52
2022-08-20T16:40:15.061Z,21.42
2022-08-20T16:42:44.479Z,21.55
2022-08-20T16:45:33.233Z,21.45
2022-08-20T16:48:03.399Z,21.32
2022-08-20T16:50:51.128Z,21.35
2022-08-20T16:53:20.489Z,21.24
2022-08-20T16:55:47.886Z,21.14
2022-08-20T16:58:15.366Z,21.14
2022-08-20T17:00:45.454Z,21.15
2022-08-20T17:03:31.341Z,21.26
2022-08-20T17:06:40.470Z,21.19
2022-08-20T17:09:10.766Z,21.12
2022-08-20T17:11:58.122Z,21.18
2022-08-20T17:14:25.701Z,21.14
2022-08-20T17:16:53.161Z,21.22
2022-08-20T17:19:28.209Z,21.32
2022-08-20T17:21:56.692Z,21.32
2022-08-20T17:24:27.661Z,21.46
2022-08-20T17:27:03.582Z,21.32
2022-08-20T17:29:32.740Z,21.29
2022-08-20T17:32:08.944Z,21.35
2022-08-20T17:34:51.056Z,21.38
2022-08-20T17:37:22.783Z,21.42
2022-08-20T17:39:52.480Z,21.41
2022-08-20T17:42:21.927Z,21.39
2022-08-20T17:45:14.654Z,21.43
2022-08-20T17:47:41.988Z,21.41
2022-08-20T17:50:29.851Z,21.46
2022-08-20T17:53:05.109Z,21.67
2022-08-20T17:55:33.097Z,21.75
2022-08-20T17:58:01.027Z,21.77
2022-08-20T18:00:28.716Z,21.83
2022-08-20T18:03:25.125Z,21.76
2022-08-20T18:06:16.420Z,21.66
2022-08-20T18:08:51.192Z,21.49
2022-08-20T18:11:27.371Z,21.41
2022-08-20T18:14:33.258Z,21.26
2022-08-20T18:17:30.188Z,21.11
2022-08-20T18:20:04.689Z,21.08
2022-08-20T18:22:36.806Z,21.12
2022-08-20T18:25:15.164Z,21.28
2022-08-20T18:27:44.556Z,21.42
2022-08-20T18:30:20.316Z,21.52
2022-08-20T18:32:49.090Z,21.46
2022-08-20T18:35:20.863Z,21.45
2022-08-20T18:37:48.619Z,21.28
2022-08-20T18:40:31.360Z,21.22
2022-08-20T18:43:11.613Z,21.15
2022-08-20T18:45:39.122Z,21.21
2022-08-20T18:48:06.693Z,21.28
2022-08-20T18:50:44.113Z,21.34
2022-08-20T18:53:15.015Z,21.42
2022-08-20T18:56:01.605Z,21.46
2022-08-20T18:58:39.909Z,21.43
2022-08-20T19:01:13.021Z,21.49
2022-08-20T19:03:49.016Z,21.46
2022-08-20T19:06:28.633Z,21.50
2022-08-20T19:09:20.441Z,21.47
2022-08-20T19:12:02.962Z,21.26
2022-08-20T19:14:41.126Z,21.25
2022-08-20T19:17:14.690Z,21.29
2022-08-20T19:19:42.409Z,21.26
2022-08-20T19:22:11.391Z,21.38
2022-08-20T19:24:44.239Z,21.47
2022-08-20T19:27:11.642Z,21.56
2022-08-20T19:29:49.744Z,21.41
2022-08-20T19:32:26.673Z,21.47
2022-08-20T19:35:02.232Z,21.38
2022-08-20T19:37:50.490Z,21.24
2022-08-20T19:40:35.145Z,21.12
2022-08-20T19:43:07.637Z,21.19
2022-08-20T19:45:40.116Z,21.14
2022-08-20T19:48:16.881Z,21.28
2022-08-20T19:51:06.587Z,21.35
2022-08-20T19:53:35.402Z,21.38
2022-08-20T19:56:06.871Z,21.34
2022-08-20T19:58:34.601Z,21.32
2022-08-20T20:01:02.577Z,21.22
2022-08-20T20:03:32.285Z,21.35
2022-08-20T20:06:16.553Z,21.35
2022-08-20T20:08:52.832Z,21.45
2022-08-20T20:11:21.489Z,21.55
2022-08-20T20:13:48.872Z,21.50
2022-08-20T20:16:18.166Z,21.46
2022-08-20T20:18:45.593Z,21.38
2022-08-20T20:21:21.354Z,21.29
2022-08-20T20:23:53.973Z,21.38
2022-08-20T20:26:21.404Z,21.43
2022-08-20T20:28:53.865Z,21.47
2022-08-20T20:31:28.089Z,21.36
2022-08-20T20:33:57.642Z,21.43
2022-08-20T20:36:39.123Z,21.43
2022-08-20T20:39:37.252Z,21.41
2022-08-20T20:42:07.477Z,21.49
2022-08-20T20:44:37.539Z,21.53
2022-08-20T20:47:08.088Z,21.47
2022-08-20T20:49:51.556Z,21.41
2022-08-20T20:52:33.772Z,21.42
2022-08-20T20:55:11.545Z,21.34
2022-08-20T20:57:39.391Z,21.42
2022-08-20T21:00:10.003Z,21.32
2022-08-20T21:02:37.334Z,21.38
2022-08-20T21:05:05.424Z,21.38
2022-08-20T21:07:32.925Z,21.36
2022-08-20T21:10:00.377Z,21.29
2022-08-20T21:12:28.099Z,21.19
2022-08-20T21:14:55.616Z,21.16
2022-08-20T21:17:23.297Z,21.29
2022-08-20T21:19:51.253Z,21.16
2022-08-20T21:22:19.559Z,21.16
2022-08-20T21:24:48.634Z,21.18
2022-08-20T21:27:16.287Z,21.29
2022-08-20T21:29:43.606Z,21.24
2022-08-20T21:32:12.341Z,21.19
2022-08-20T21:34:40.379Z,21.21
2022-08-20T21:37:07.765Z,21.16
2022-08-20T21:39:35.144Z,21.18
2022-08-20T21:42:03.887Z,21.07
2022-08-20T21:44:31.800Z,21.14
2022-08-20T21:47:00.070Z,21.21
2022-08-20T21:49:28.533Z,21.19
2022-08-20T21:51:56.159Z,21.16
2022-08-20T21:54:23.641Z,21.07
2022-08-20T21:56:54.345Z,20.95
2022-08-20T21:59:22.182Z,20.99
2022-08-20T22:01:49.610Z,21.02
2022-08-20T22:04:17.242Z,21.05
2022-08-20T22:06:44.561Z,21.14
2022-08-20T22:09:11.915Z,21.09
2022-08-20T22:11:39.219Z,20.98
2022-08-20T22:14:07.566Z,20.97
2022-08-20T22:16:34.961Z,20.95
2022-08-20T22:19:02.410Z,20.83
2022-08-20T22:21:31.284Z,20.80
2022-08-20T22:24:00.190Z,20.88
2022-08-20T22:26:27.597Z,20.94
2022-08-20T22:28:54.940Z,20.88
2022-08-20T22:31:24.875Z,20.98
2022-08-20T22:33:52.437Z,20.98
2022-08-20T22:36:19.817Z,20.98
2022-08-20T22:38:54.429Z,20.98
2022-08-20T22:41:22.363Z,20.90
2022-08-20T22:43:56.268Z,20.85
2022-08-20T22:46:26.490Z,20.81
2022-08-20T22:48:55.317Z,20.85
2022-08-20T22:51:28.277Z,20.85
2022-08-20T22:53:55.750Z,20.81
2022-08-20T22:56:23.043Z,20.80
2022-08-20T22:58:50.478Z,20.99
2022-08-20T23:01:18.856Z,20.90
2022-08-20T23:03:46.370Z,20.91
2022-08-20T23:06:13.921Z,20.97
2022-08-20T23:08:42.084Z,20.92
2022-08-20T23:11:09.483Z,21.01
2022-08-20T23:13:36.972Z,21.09
2022-08-20T23:16:05.007Z,21.15
2022-08-20T23:18:32.423Z,20.94
2022-08-20T23:21:00.140Z,20.78
2022-08-20T23:23:27.551Z,20.74
2022-08-20T23:25:55.115Z,20.63
2022-08-20T23:28:24.032Z,20.61
2022-08-20T23:30:51.474Z,20.61
2022-08-20T23:33:19.182Z,20.56
2022-08-20T23:35:46.600Z,20.37
2022-08-20T23:38:13.975Z,20.41
2022-08-20T23:40:41.399Z,20.44
2022-08-20T23:43:08.864Z,20.50
2022-08-20T23:45:39.838Z,20.43
2022-08-20T23:48:08.020Z,20.40
2022-08-20T23:50:35.531Z,20.50
2022-08-20T23:53:03.816Z,20.51
2022-08-20T23:55:31.165Z,20.50
2022-08-20T23:57:58.544Z,20.51
